sensor_id;sensor_type;location;lat;lon;timestamp;P1;durP1;ratioP1;P2;durP2;ratioP2
19691;SDS011;42748;50.016;19.890;2023-02-28T00:01:20;30.90;;;12.77;;
19691;SDS011;42748;50.016;19.890;2023-02-28T00:03:48;27.50;;;12.67;;
19691;SDS011;42748;50.016;19.890;2023-02-28T00:06:15;30.07;;;13.40;;
19691;SDS011;42748;50.016;19.890;2023-02-28T00:08:42;32.33;;;13.83;;
19691;SDS011;42748;50.016;19.890;2023-02-28T00:11:11;30.20;;;13.93;;
19691;SDS011;42748;50.016;19.890;2023-02-28T00:13:41;28.83;;;13.27;;
19691;SDS011;42748;50.016;19.890;2023-02-28T00:16:14;27.73;;;12.83;;
19691;SDS011;42748;50.016;19.890;2023-02-28T00:18:43;28.47;;;12.53;;
19691;SDS011;42748;50.016;19.890;2023-02-28T00:21:11;33.97;;;13.37;;
19691;SDS011;42748;50.016;19.890;2023-02-28T00:23:38;28.90;;;12.50;;
19691;SDS011;42748;50.016;19.890;2023-02-28T00:26:05;31.63;;;13.37;;
19691;SDS011;42748;50.016;19.890;2023-02-28T00:28:32;30.40;;;13.50;;
19691;SDS011;42748;50.016;19.890;2023-02-28T00:30:59;31.93;;;13.93;;
19691;SDS011;42748;50.016;19.890;2023-02-28T00:33:28;30.17;;;13.63;;
19691;SDS011;42748;50.016;19.890;2023-02-28T00:36:05;27.40;;;12.33;;
19691;SDS011;42748;50.016;19.890;2023-02-28T00:38:35;28.47;;;12.37;;
19691;SDS011;42748;50.016;19.890;2023-02-28T00:41:02;29.70;;;12.57;;
19691;SDS011;42748;50.016;19.890;2023-02-28T00:43:32;32.67;;;13.27;;
19691;SDS011;42748;50.016;19.890;2023-02-28T00:46:03;33.47;;;13.83;;
19691;SDS011;42748;50.016;19.890;2023-02-28T00:48:31;28.77;;;14.17;;
19691;SDS011;42748;50.016;19.890;2023-02-28T00:50:59;31.07;;;12.90;;
19691;SDS011;42748;50.016;19.890;2023-02-28T00:53:26;28.77;;;13.77;;
19691;SDS011;42748;50.016;19.890;2023-02-28T00:55:56;28.70;;;13.00;;
19691;SDS011;42748;50.016;19.890;2023-02-28T00:58:24;30.07;;;13.07;;
19691;SDS011;42748;50.016;19.890;2023-02-28T01:00:51;27.47;;;13.20;;
19691;SDS011;42748;50.016;19.890;2023-02-28T01:03:20;31.10;;;13.33;;
19691;SDS011;42748;50.016;19.890;2023-02-28T01:05:49;26.83;;;12.70;;
19691;SDS011;42748;50.016;19.890;2023-02-28T01:08:16;27.93;;;13.00;;
19691;SDS011;42748;50.016;19.890;2023-02-28T01:10:43;29.93;;;12.77;;
19691;SDS011;42748;50.016;19.890;2023-02-28T01:13:11;29.37;;;12.80;;
19691;SDS011;42748;50.016;19.890;2023-02-28T01:15:43;30.00;;;13.17;;
19691;SDS011;42748;50.016;19.890;2023-02-28T01:18:12;28.83;;;13.17;;
19691;SDS011;42748;50.016;19.890;2023-02-28T01:20:40;28.23;;;12.73;;
19691;SDS011;42748;50.016;19.890;2023-02-28T01:23:08;28.17;;;13.03;;
19691;SDS011;42748;50.016;19.890;2023-02-28T01:25:35;30.57;;;13.00;;
19691;SDS011;42748;50.016;19.890;2023-02-28T01:28:03;30.50;;;13.17;;
19691;SDS011;42748;50.016;19.890;2023-02-28T01:30:33;32.10;;;13.20;;
19691;SDS011;42748;50.016;19.890;2023-02-28T01:33:00;26.93;;;12.70;;
19691;SDS011;42748;50.016;19.890;2023-02-28T01:35:27;27.20;;;12.67;;
19691;SDS011;42748;50.016;19.890;2023-02-28T01:37:54;29.90;;;13.70;;
19691;SDS011;42748;50.016;19.890;2023-02-28T01:40:30;28.80;;;12.70;;
19691;SDS011;42748;50.016;19.890;2023-02-28T01:42:57;31.07;;;13.20;;
19691;SDS011;42748;50.016;19.890;2023-02-28T01:45:31;27.97;;;13.60;;
19691;SDS011;42748;50.016;19.890;2023-02-28T01:48:02;32.43;;;13.50;;
19691;SDS011;42748;50.016;19.890;2023-02-28T01:50:34;27.97;;;13.13;;
19691;SDS011;42748;50.016;19.890;2023-02-28T01:53:04;29.10;;;13.07;;
19691;SDS011;42748;50.016;19.890;2023-02-28T01:55:35;31.67;;;13.60;;
19691;SDS011;42748;50.016;19.890;2023-02-28T01:58:04;32.07;;;14.30;;
19691;SDS011;42748;50.016;19.890;2023-02-28T02:00:33;33.40;;;14.20;;
19691;SDS011;42748;50.016;19.890;2023-02-28T02:03:01;34.10;;;14.33;;
19691;SDS011;42748;50.016;19.890;2023-02-28T02:05:36;30.83;;;14.13;;
19691;SDS011;42748;50.016;19.890;2023-02-28T02:08:12;30.23;;;13.87;;
19691;SDS011;42748;50.016;19.890;2023-02-28T02:10:44;29.00;;;14.13;;
19691;SDS011;42748;50.016;19.890;2023-02-28T02:35:59;36.27;;;15.50;;
19691;SDS011;42748;50.016;19.890;2023-02-28T02:38:33;36.33;;;14.77;;
19691;SDS011;42748;50.016;19.890;2023-02-28T02:41:10;36.50;;;15.17;;
19691;SDS011;42748;50.016;19.890;2023-02-28T02:43:57;34.60;;;15.50;;
19691;SDS011;42748;50.016;19.890;2023-02-28T02:46:39;34.57;;;15.73;;
19691;SDS011;42748;50.016;19.890;2023-02-28T02:49:11;34.70;;;15.33;;
19691;SDS011;42748;50.016;19.890;2023-02-28T02:51:49;36.63;;;16.07;;
19691;SDS011;42748;50.016;19.890;2023-02-28T02:54:21;37.67;;;15.70;;
19691;SDS011;42748;50.016;19.890;2023-02-28T02:56:56;35.03;;;15.33;;
19691;SDS011;42748;50.016;19.890;2023-02-28T02:59:27;36.57;;;15.43;;
19691;SDS011;42748;50.016;19.890;2023-02-28T03:01:57;38.43;;;15.67;;
19691;SDS011;42748;50.016;19.890;2023-02-28T03:04:30;38.57;;;16.17;;
19691;SDS011;42748;50.016;19.890;2023-02-28T03:07:01;34.10;;;16.00;;
19691;SDS011;42748;50.016;19.890;2023-02-28T03:09:28;36.23;;;16.77;;
19691;SDS011;42748;50.016;19.890;2023-02-28T03:11:55;38.10;;;17.40;;
19691;SDS011;42748;50.016;19.890;2023-02-28T03:28:35;43.23;;;19.90;;
19691;SDS011;42748;50.016;19.890;2023-02-28T03:31:26;44.53;;;20.20;;
19691;SDS011;42748;50.016;19.890;2023-02-28T03:34:10;48.67;;;20.13;;
19691;SDS011;42748;50.016;19.890;2023-02-28T03:37:01;42.37;;;20.07;;
19691;SDS011;42748;50.016;19.890;2023-02-28T03:39:36;43.53;;;19.57;;
19691;SDS011;42748;50.016;19.890;2023-02-28T03:42:20;43.00;;;19.47;;
19691;SDS011;42748;50.016;19.890;2023-02-28T03:44:57;43.03;;;18.93;;
19691;SDS011;42748;50.016;19.890;2023-02-28T03:47:28;47.10;;;19.73;;
19691;SDS011;42748;50.016;19.890;2023-02-28T03:50:11;46.10;;;19.43;;
19691;SDS011;42748;50.016;19.890;2023-02-28T03:52:53;44.50;;;19.63;;
19691;SDS011;42748;50.016;19.890;2023-02-28T03:55:32;43.70;;;18.20;;
19691;SDS011;42748;50.016;19.890;2023-02-28T04:01:27;45.47;;;20.57;;
19691;SDS011;42748;50.016;19.890;2023-02-28T04:04:04;46.70;;;21.13;;
19691;SDS011;42748;50.016;19.890;2023-02-28T04:06:32;44.57;;;21.43;;
19691;SDS011;42748;50.016;19.890;2023-02-28T04:09:00;50.20;;;22.17;;
19691;SDS011;42748;50.016;19.890;2023-02-28T04:14:03;48.97;;;21.07;;
19691;SDS011;42748;50.016;19.890;2023-02-28T04:16:31;49.33;;;21.60;;
19691;SDS011;42748;50.016;19.890;2023-02-28T04:19:04;51.63;;;21.83;;
19691;SDS011;42748;50.016;19.890;2023-02-28T04:21:33;45.20;;;20.00;;
19691;SDS011;42748;50.016;19.890;2023-02-28T04:24:12;47.97;;;21.50;;
19691;SDS011;42748;50.016;19.890;2023-02-28T04:26:48;51.07;;;20.73;;
19691;SDS011;42748;50.016;19.890;2023-02-28T04:29:20;54.23;;;21.87;;
19691;SDS011;42748;50.016;19.890;2023-02-28T04:31:55;48.40;;;21.83;;
19691;SDS011;42748;50.016;19.890;2023-02-28T04:34:25;57.07;;;22.37;;
19691;SDS011;42748;50.016;19.890;2023-02-28T04:36:53;50.27;;;21.83;;
19691;SDS011;42748;50.016;19.890;2023-02-28T04:39:37;53.47;;;23.00;;
19691;SDS011;42748;50.016;19.890;2023-02-28T04:42:05;52.30;;;23.37;;
19691;SDS011;42748;50.016;19.890;2023-02-28T04:44:32;52.63;;;23.83;;
19691;SDS011;42748;50.016;19.890;2023-02-28T04:46:59;55.27;;;23.13;;
19691;SDS011;42748;50.016;19.890;2023-02-28T04:49:27;53.27;;;22.60;;
19691;SDS011;42748;50.016;19.890;2023-02-28T04:51:54;53.40;;;23.30;;
19691;SDS011;42748;50.016;19.890;2023-02-28T04:54:22;58.73;;;23.77;;
19691;SDS011;42748;50.016;19.890;2023-02-28T04:56:49;55.30;;;23.37;;
19691;SDS011;42748;50.016;19.890;2023-02-28T04:59:16;53.73;;;23.53;;
19691;SDS011;42748;50.016;19.890;2023-02-28T05:01:47;56.03;;;23.43;;
19691;SDS011;42748;50.016;19.890;2023-02-28T05:04:15;53.60;;;23.87;;
19691;SDS011;42748;50.016;19.890;2023-02-28T05:06:42;60.17;;;24.23;;
19691;SDS011;42748;50.016;19.890;2023-02-28T05:09:09;60.07;;;25.00;;
19691;SDS011;42748;50.016;19.890;2023-02-28T05:11:40;59.33;;;24.37;;
19691;SDS011;42748;50.016;19.890;2023-02-28T05:14:11;54.10;;;23.23;;
19691;SDS011;42748;50.016;19.890;2023-02-28T05:16:39;57.40;;;25.03;;
19691;SDS011;42748;50.016;19.890;2023-02-28T05:19:06;58.53;;;23.47;;
19691;SDS011;42748;50.016;19.890;2023-02-28T05:24:11;60.03;;;24.67;;
19691;SDS011;42748;50.016;19.890;2023-02-28T05:26:41;61.90;;;25.53;;
19691;SDS011;42748;50.016;19.890;2023-02-28T05:29:09;57.50;;;24.77;;
19691;SDS011;42748;50.016;19.890;2023-02-28T05:31:37;58.33;;;25.00;;
19691;SDS011;42748;50.016;19.890;2023-02-28T05:34:04;63.57;;;27.17;;
19691;SDS011;42748;50.016;19.890;2023-02-28T05:36:32;66.40;;;26.63;;
19691;SDS011;42748;50.016;19.890;2023-02-28T05:38:59;59.80;;;25.97;;
19691;SDS011;42748;50.016;19.890;2023-02-28T05:41:26;60.10;;;25.83;;
19691;SDS011;42748;50.016;19.890;2023-02-28T05:43:54;68.93;;;27.33;;
19691;SDS011;42748;50.016;19.890;2023-02-28T05:46:21;63.73;;;26.43;;
19691;SDS011;42748;50.016;19.890;2023-02-28T05:48:48;67.30;;;27.53;;
19691;SDS011;42748;50.016;19.890;2023-02-28T05:51:16;61.87;;;26.57;;
19691;SDS011;42748;50.016;19.890;2023-02-28T05:53:43;62.13;;;26.40;;
19691;SDS011;42748;50.016;19.890;2023-02-28T05:56:10;62.50;;;26.53;;
19691;SDS011;42748;50.016;19.890;2023-02-28T05:58:37;60.90;;;27.33;;
19691;SDS011;42748;50.016;19.890;2023-02-28T06:01:50;62.27;;;26.73;;
19691;SDS011;42748;50.016;19.890;2023-02-28T06:04:03;61.00;;;26.40;;
19691;SDS011;42748;50.016;19.890;2023-02-28T06:06:32;58.17;;;25.67;;
19691;SDS011;42748;50.016;19.890;2023-02-28T06:09:04;59.73;;;25.30;;
19691;SDS011;42748;50.016;19.890;2023-02-28T06:11:32;59.43;;;24.67;;
19691;SDS011;42748;50.016;19.890;2023-02-28T06:13:59;58.07;;;24.93;;
19691;SDS011;42748;50.016;19.890;2023-02-28T06:16:27;61.17;;;25.80;;
19691;SDS011;42748;50.016;19.890;2023-02-28T06:18:59;57.10;;;24.57;;
19691;SDS011;42748;50.016;19.890;2023-02-28T06:21:28;58.73;;;24.17;;
19691;SDS011;42748;50.016;19.890;2023-02-28T06:23:56;59.30;;;24.80;;
19691;SDS011;42748;50.016;19.890;2023-02-28T06:26:24;56.77;;;23.40;;
19691;SDS011;42748;50.016;19.890;2023-02-28T06:28:52;55.80;;;23.67;;
19691;SDS011;42748;50.016;19.890;2023-02-28T06:31:19;57.90;;;23.40;;
19691;SDS011;42748;50.016;19.890;2023-02-28T06:33:47;56.10;;;23.77;;
19691;SDS011;42748;50.016;19.890;2023-02-28T06:36:15;57.20;;;24.53;;
19691;SDS011;42748;50.016;19.890;2023-02-28T06:38:43;55.67;;;25.40;;
19691;SDS011;42748;50.016;19.890;2023-02-28T06:41:10;61.60;;;26.77;;
19691;SDS011;42748;50.016;19.890;2023-02-28T06:43:39;55.23;;;24.97;;
19691;SDS011;42748;50.016;19.890;2023-02-28T06:46:10;57.53;;;26.23;;
19691;SDS011;42748;50.016;19.890;2023-02-28T06:48:40;65.87;;;28.20;;
19691;SDS011;42748;50.016;19.890;2023-02-28T06:51:10;65.37;;;28.03;;
19691;SDS011;42748;50.016;19.890;2023-02-28T06:53:41;65.30;;;28.53;;
19691;SDS011;42748;50.016;19.890;2023-02-28T06:56:12;69.63;;;28.60;;
19691;SDS011;42748;50.016;19.890;2023-02-28T06:58:41;63.77;;;27.73;;
19691;SDS011;42748;50.016;19.890;2023-02-28T07:01:13;62.57;;;27.30;;
19691;SDS011;42748;50.016;19.890;2023-02-28T07:03:40;72.93;;;28.97;;
19691;SDS011;42748;50.016;19.890;2023-02-28T07:06:07;66.63;;;27.43;;
19691;SDS011;42748;50.016;19.890;2023-02-28T07:08:34;67.07;;;27.97;;
19691;SDS011;42748;50.016;19.890;2023-02-28T07:11:02;58.03;;;26.03;;
19691;SDS011;42748;50.016;19.890;2023-02-28T07:13:30;64.93;;;26.73;;
19691;SDS011;42748;50.016;19.890;2023-02-28T07:15:59;64.70;;;27.47;;
19691;SDS011;42748;50.016;19.890;2023-02-28T07:18:27;69.43;;;27.93;;
19691;SDS011;42748;50.016;19.890;2023-02-28T07:20:55;59.73;;;27.03;;
19691;SDS011;42748;50.016;19.890;2023-02-28T07:23:22;63.60;;;26.03;;
19691;SDS011;42748;50.016;19.890;2023-02-28T07:25:50;60.33;;;25.93;;
19691;SDS011;42748;50.016;19.890;2023-02-28T07:28:17;62.50;;;25.53;;
19691;SDS011;42748;50.016;19.890;2023-02-28T07:30:44;59.80;;;26.17;;
19691;SDS011;42748;50.016;19.890;2023-02-28T07:33:11;56.27;;;24.73;;
19691;SDS011;42748;50.016;19.890;2023-02-28T07:35:38;60.60;;;24.80;;
19691;SDS011;42748;50.016;19.890;2023-02-28T07:38:06;63.43;;;25.30;;
19691;SDS011;42748;50.016;19.890;2023-02-28T07:40:34;62.20;;;26.03;;
19691;SDS011;42748;50.016;19.890;2023-02-28T07:43:02;64.47;;;25.83;;
19691;SDS011;42748;50.016;19.890;2023-02-28T07:45:30;57.87;;;23.20;;
19691;SDS011;42748;50.016;19.890;2023-02-28T07:48:01;54.97;;;23.67;;
19691;SDS011;42748;50.016;19.890;2023-02-28T07:50:28;54.60;;;22.50;;
19691;SDS011;42748;50.016;19.890;2023-02-28T07:52:59;55.30;;;22.13;;
19691;SDS011;42748;50.016;19.890;2023-02-28T07:55:27;49.27;;;21.60;;
19691;SDS011;42748;50.016;19.890;2023-02-28T07:57:56;54.30;;;21.50;;
19691;SDS011;42748;50.016;19.890;2023-02-28T08:00:24;47.53;;;20.90;;
19691;SDS011;42748;50.016;19.890;2023-02-28T08:02:51;51.87;;;21.00;;
19691;SDS011;42748;50.016;19.890;2023-02-28T08:05:18;41.60;;;19.63;;
19691;SDS011;42748;50.016;19.890;2023-02-28T08:07:48;40.63;;;18.80;;
19691;SDS011;42748;50.016;19.890;2023-02-28T08:10:16;41.17;;;18.53;;
19691;SDS011;42748;50.016;19.890;2023-02-28T08:12:43;39.47;;;17.80;;
19691;SDS011;42748;50.016;19.890;2023-02-28T08:15:11;43.73;;;18.00;;
19691;SDS011;42748;50.016;19.890;2023-02-28T08:17:38;36.03;;;16.97;;
19691;SDS011;42748;50.016;19.890;2023-02-28T08:20:05;38.30;;;16.23;;
19691;SDS011;42748;50.016;19.890;2023-02-28T08:22:33;29.97;;;14.17;;
19691;SDS011;42748;50.016;19.890;2023-02-28T08:25:00;31.33;;;13.50;;
19691;SDS011;42748;50.016;19.890;2023-02-28T08:27:27;30.07;;;14.20;;
19691;SDS011;42748;50.016;19.890;2023-02-28T08:29:54;31.10;;;14.47;;
19691;SDS011;42748;50.016;19.890;2023-02-28T08:32:21;33.27;;;14.40;;
19691;SDS011;42748;50.016;19.890;2023-02-28T08:34:55;29.80;;;13.17;;
19691;SDS011;42748;50.016;19.890;2023-02-28T08:37:22;28.27;;;12.57;;
19691;SDS011;42748;50.016;19.890;2023-02-28T08:39:50;30.00;;;11.80;;
19691;SDS011;42748;50.016;19.890;2023-02-28T08:42:21;22.83;;;9.90;;
19691;SDS011;42748;50.016;19.890;2023-02-28T08:44:49;21.23;;;9.53;;
19691;SDS011;42748;50.016;19.890;2023-02-28T08:47:16;19.40;;;8.57;;
19691;SDS011;42748;50.016;19.890;2023-02-28T08:49:43;22.77;;;10.17;;
19691;SDS011;42748;50.016;19.890;2023-02-28T08:52:10;21.20;;;10.60;;
19691;SDS011;42748;50.016;19.890;2023-02-28T08:54:37;18.10;;;9.13;;
19691;SDS011;42748;50.016;19.890;2023-02-28T08:57:04;18.10;;;9.17;;
19691;SDS011;42748;50.016;19.890;2023-02-28T08:59:31;18.57;;;8.93;;
19691;SDS011;42748;50.016;19.890;2023-02-28T09:01:59;16.37;;;8.63;;
19691;SDS011;42748;50.016;19.890;2023-02-28T09:04:26;19.50;;;9.30;;
19691;SDS011;42748;50.016;19.890;2023-02-28T09:06:53;17.10;;;9.37;;
19691;SDS011;42748;50.016;19.890;2023-02-28T09:09:20;20.87;;;10.30;;
19691;SDS011;42748;50.016;19.890;2023-02-28T09:11:47;19.07;;;9.80;;
19691;SDS011;42748;50.016;19.890;2023-02-28T09:14:14;18.93;;;9.53;;
19691;SDS011;42748;50.016;19.890;2023-02-28T09:16:41;19.73;;;9.77;;
19691;SDS011;42748;50.016;19.890;2023-02-28T09:19:10;20.40;;;10.43;;
19691;SDS011;42748;50.016;19.890;2023-02-28T09:21:38;18.80;;;9.80;;
19691;SDS011;42748;50.016;19.890;2023-02-28T09:24:06;15.97;;;9.50;;
19691;SDS011;42748;50.016;19.890;2023-02-28T09:26:34;19.77;;;9.87;;
19691;SDS011;42748;50.016;19.890;2023-02-28T09:29:12;18.70;;;8.80;;
19691;SDS011;42748;50.016;19.890;2023-02-28T09:31:40;18.67;;;8.50;;
19691;SDS011;42748;50.016;19.890;2023-02-28T09:34:08;17.40;;;8.80;;
19691;SDS011;42748;50.016;19.890;2023-02-28T09:36:35;18.13;;;8.60;;
19691;SDS011;42748;50.016;19.890;2023-02-28T09:39:11;18.13;;;8.30;;
19691;SDS011;42748;50.016;19.890;2023-02-28T09:41:42;18.13;;;8.20;;
19691;SDS011;42748;50.016;19.890;2023-02-28T09:44:22;16.30;;;8.38;;
19691;SDS011;42748;50.016;19.890;2023-02-28T09:46:52;13.93;;;7.30;;
19691;SDS011;42748;50.016;19.890;2023-02-28T09:49:24;14.65;;;8.10;;
19691;SDS011;42748;50.016;19.890;2023-02-28T09:52:05;18.65;;;7.93;;
19691;SDS011;42748;50.016;19.890;2023-02-28T09:54:38;13.93;;;7.57;;
19691;SDS011;42748;50.016;19.890;2023-02-28T10:05:41;15.37;;;8.47;;
19691;SDS011;42748;50.016;19.890;2023-02-28T10:08:28;14.70;;;8.17;;
19691;SDS011;42748;50.016;19.890;2023-02-28T10:11:01;16.52;;;8.38;;
19691;SDS011;42748;50.016;19.890;2023-02-28T10:13:34;14.93;;;8.37;;
19691;SDS011;42748;50.016;19.890;2023-02-28T10:16:12;14.33;;;8.50;;
19691;SDS011;42748;50.016;19.890;2023-02-28T10:18:46;14.93;;;8.57;;
19691;SDS011;42748;50.016;19.890;2023-02-28T10:21:23;16.30;;;7.82;;
19691;SDS011;42748;50.016;19.890;2023-02-28T10:23:57;15.13;;;8.23;;
19691;SDS011;42748;50.016;19.890;2023-02-28T10:26:29;19.33;;;9.30;;
19691;SDS011;42748;50.016;19.890;2023-02-28T10:28:58;19.40;;;8.17;;
19691;SDS011;42748;50.016;19.890;2023-02-28T10:31:26;17.58;;;9.43;;
19691;SDS011;42748;50.016;19.890;2023-02-28T10:33:53;19.07;;;9.37;;
19691;SDS011;42748;50.016;19.890;2023-02-28T10:36:21;16.83;;;8.87;;
19691;SDS011;42748;50.016;19.890;2023-02-28T10:38:48;20.77;;;9.63;;
19691;SDS011;42748;50.016;19.890;2023-02-28T10:41:26;20.00;;;10.27;;
19691;SDS011;42748;50.016;19.890;2023-02-28T10:44:17;19.73;;;9.50;;
19691;SDS011;42748;50.016;19.890;2023-02-28T10:46:49;19.67;;;9.73;;
19691;SDS011;42748;50.016;19.890;2023-02-28T10:49:19;19.13;;;9.73;;
19691;SDS011;42748;50.016;19.890;2023-02-28T10:51:53;17.53;;;10.17;;
19691;SDS011;42748;50.016;19.890;2023-02-28T10:54:31;20.53;;;9.53;;
19691;SDS011;42748;50.016;19.890;2023-02-28T10:57:06;19.73;;;9.53;;
19691;SDS011;42748;50.016;19.890;2023-02-28T10:59:33;23.10;;;10.43;;
19691;SDS011;42748;50.016;19.890;2023-02-28T11:02:00;20.07;;;9.63;;
19691;SDS011;42748;50.016;19.890;2023-02-28T11:09:52;17.03;;;9.43;;
19691;SDS011;42748;50.016;19.890;2023-02-28T11:12:23;22.10;;;9.73;;
19691;SDS011;42748;50.016;19.890;2023-02-28T11:14:55;19.27;;;9.57;;
19691;SDS011;42748;50.016;19.890;2023-02-28T11:17:27;17.53;;;9.37;;
19691;SDS011;42748;50.016;19.890;2023-02-28T11:19:57;18.67;;;9.30;;
19691;SDS011;42748;50.016;19.890;2023-02-28T11:22:31;19.10;;;9.90;;
19691;SDS011;42748;50.016;19.890;2023-02-28T11:25:16;25.13;;;10.93;;
19691;SDS011;42748;50.016;19.890;2023-02-28T11:27:49;18.30;;;9.90;;
19691;SDS011;42748;50.016;19.890;2023-02-28T11:30:23;18.27;;;9.63;;
19691;SDS011;42748;50.016;19.890;2023-02-28T11:32:52;21.37;;;9.77;;
19691;SDS011;42748;50.016;19.890;2023-02-28T11:35:30;18.53;;;10.13;;
19691;SDS011;42748;50.016;19.890;2023-02-28T11:38:02;20.27;;;10.20;;
19691;SDS011;42748;50.016;19.890;2023-02-28T11:51:28;19.57;;;9.70;;
19691;SDS011;42748;50.016;19.890;2023-02-28T11:54:04;18.00;;;9.77;;
19691;SDS011;42748;50.016;19.890;2023-02-28T11:56:51;19.40;;;9.53;;
19691;SDS011;42748;50.016;19.890;2023-02-28T12:10:35;16.90;;;9.00;;
19691;SDS011;42748;50.016;19.890;2023-02-28T12:27:29;18.40;;;9.03;;
19691;SDS011;42748;50.016;19.890;2023-02-28T12:30:08;18.07;;;9.03;;
19691;SDS011;42748;50.016;19.890;2023-02-28T12:32:50;19.50;;;9.40;;
19691;SDS011;42748;50.016;19.890;2023-02-28T12:35:42;17.63;;;9.33;;
19691;SDS011;42748;50.016;19.890;2023-02-28T12:38:42;17.37;;;8.43;;
19691;SDS011;42748;50.016;19.890;2023-02-28T12:41:23;19.93;;;9.00;;
19691;SDS011;42748;50.016;19.890;2023-02-28T12:44:07;17.17;;;8.93;;
19691;SDS011;42748;50.016;19.890;2023-02-28T12:46:51;17.73;;;8.80;;
19691;SDS011;42748;50.016;19.890;2023-02-28T12:49:25;19.07;;;8.87;;
19691;SDS011;42748;50.016;19.890;2023-02-28T13:00:55;19.73;;;9.60;;
19691;SDS011;42748;50.016;19.890;2023-02-28T13:03:48;18.63;;;9.10;;
19691;SDS011;42748;50.016;19.890;2023-02-28T13:09:29;17.13;;;8.80;;
19691;SDS011;42748;50.016;19.890;2023-02-28T13:11:56;18.60;;;9.53;;
19691;SDS011;42748;50.016;19.890;2023-02-28T13:14:29;19.07;;;9.83;;
19691;SDS011;42748;50.016;19.890;2023-02-28T13:17:00;19.73;;;9.67;;
19691;SDS011;42748;50.016;19.890;2023-02-28T13:19:29;19.73;;;9.23;;
19691;SDS011;42748;50.016;19.890;2023-02-28T13:21:59;18.43;;;9.60;;
19691;SDS011;42748;50.016;19.890;2023-02-28T13:29:41;22.47;;;9.60;;
19691;SDS011;42748;50.016;19.890;2023-02-28T13:34:39;19.97;;;9.03;;
19691;SDS011;42748;50.016;19.890;2023-02-28T13:39:49;22.33;;;9.77;;
19691;SDS011;42748;50.016;19.890;2023-02-28T13:42:33;21.57;;;10.37;;
19691;SDS011;42748;50.016;19.890;2023-02-28T13:58:41;20.33;;;9.93;;
19691;SDS011;42748;50.016;19.890;2023-02-28T14:01:23;17.67;;;9.63;;
19691;SDS011;42748;50.016;19.890;2023-02-28T14:06:52;18.97;;;9.87;;
19691;SDS011;42748;50.016;19.890;2023-02-28T14:09:28;24.53;;;9.57;;
19691;SDS011;42748;50.016;19.890;2023-02-28T14:12:50;17.97;;;8.87;;
19691;SDS011;42748;50.016;19.890;2023-02-28T14:15:23;19.93;;;9.97;;
19691;SDS011;42748;50.016;19.890;2023-02-28T14:18:20;21.33;;;10.50;;
19691;SDS011;42748;50.016;19.890;2023-02-28T14:23:57;20.63;;;10.57;;
19691;SDS011;42748;50.016;19.890;2023-02-28T14:26:42;21.10;;;10.43;;
19691;SDS011;42748;50.016;19.890;2023-02-28T14:38:14;19.07;;;9.60;;
19691;SDS011;42748;50.016;19.890;2023-02-28T14:40:47;20.93;;;9.83;;
19691;SDS011;42748;50.016;19.890;2023-02-28T14:43:22;20.40;;;10.67;;
19691;SDS011;42748;50.016;19.890;2023-02-28T14:45:52;23.57;;;10.67;;
19691;SDS011;42748;50.016;19.890;2023-02-28T14:48:28;18.53;;;10.57;;
19691;SDS011;42748;50.016;19.890;2023-02-28T14:50:59;21.33;;;10.00;;
19691;SDS011;42748;50.016;19.890;2023-02-28T14:53:28;20.97;;;10.30;;
19691;SDS011;42748;50.016;19.890;2023-02-28T14:55:57;24.20;;;10.10;;
19691;SDS011;42748;50.016;19.890;2023-02-28T14:58:31;21.03;;;10.03;;
19691;SDS011;42748;50.016;19.890;2023-02-28T15:01:00;22.97;;;10.10;;
19691;SDS011;42748;50.016;19.890;2023-02-28T15:05:57;21.30;;;10.80;;
19691;SDS011;42748;50.016;19.890;2023-02-28T15:08:26;22.23;;;10.20;;
19691;SDS011;42748;50.016;19.890;2023-02-28T15:10:57;22.53;;;9.73;;
19691;SDS011;42748;50.016;19.890;2023-02-28T15:13:38;21.60;;;10.17;;
19691;SDS011;42748;50.016;19.890;2023-02-28T15:16:08;19.40;;;9.80;;
19691;SDS011;42748;50.016;19.890;2023-02-28T15:19:40;22.73;;;9.73;;
19691;SDS011;42748;50.016;19.890;2023-02-28T15:21:48;23.20;;;10.17;;
19691;SDS011;42748;50.016;19.890;2023-02-28T15:24:21;23.17;;;9.43;;
19691;SDS011;42748;50.016;19.890;2023-02-28T15:27:07;22.40;;;10.07;;
19691;SDS011;42748;50.016;19.890;2023-02-28T15:30:07;21.70;;;10.80;;
19691;SDS011;42748;50.016;19.890;2023-02-28T15:32:40;20.30;;;10.27;;
19691;SDS011;42748;50.016;19.890;2023-02-28T15:37:57;20.23;;;10.50;;
19691;SDS011;42748;50.016;19.890;2023-02-28T15:40:37;21.67;;;10.27;;
19691;SDS011;42748;50.016;19.890;2023-02-28T15:43:15;20.40;;;10.87;;
19691;SDS011;42748;50.016;19.890;2023-02-28T15:48:17;24.70;;;11.23;;
19691;SDS011;42748;50.016;19.890;2023-02-28T15:50:46;21.97;;;10.73;;
19691;SDS011;42748;50.016;19.890;2023-02-28T15:53:17;23.97;;;11.37;;
19691;SDS011;42748;50.016;19.890;2023-02-28T15:56:01;24.57;;;11.60;;
19691;SDS011;42748;50.016;19.890;2023-02-28T15:58:35;23.00;;;11.20;;
19691;SDS011;42748;50.016;19.890;2023-02-28T16:01:08;23.33;;;11.33;;
19691;SDS011;42748;50.016;19.890;2023-02-28T16:03:57;26.47;;;10.80;;
19691;SDS011;42748;50.016;19.890;2023-02-28T16:06:37;24.23;;;11.53;;
19691;SDS011;42748;50.016;19.890;2023-02-28T16:09:05;21.57;;;10.83;;
19691;SDS011;42748;50.016;19.890;2023-02-28T16:11:37;25.70;;;11.40;;
19691;SDS011;42748;50.016;19.890;2023-02-28T16:14:17;21.23;;;11.30;;
19691;SDS011;42748;50.016;19.890;2023-02-28T16:16:49;26.97;;;11.97;;
19691;SDS011;42748;50.016;19.890;2023-02-28T16:19:18;24.63;;;11.53;;
19691;SDS011;42748;50.016;19.890;2023-02-28T16:21:46;26.73;;;11.83;;
19691;SDS011;42748;50.016;19.890;2023-02-28T16:24:13;25.37;;;12.00;;
19691;SDS011;42748;50.016;19.890;2023-02-28T16:26:40;26.63;;;12.50;;
19691;SDS011;42748;50.016;19.890;2023-02-28T16:29:09;22.70;;;11.40;;
19691;SDS011;42748;50.016;19.890;2023-02-28T16:31:45;27.77;;;12.07;;
19691;SDS011;42748;50.016;19.890;2023-02-28T16:34:12;29.33;;;12.67;;
19691;SDS011;42748;50.016;19.890;2023-02-28T16:36:39;28.23;;;12.30;;
19691;SDS011;42748;50.016;19.890;2023-02-28T16:39:07;28.83;;;12.40;;
19691;SDS011;42748;50.016;19.890;2023-02-28T16:41:34;27.90;;;12.70;;
19691;SDS011;42748;50.016;19.890;2023-02-28T16:44:01;27.47;;;12.77;;
19691;SDS011;42748;50.016;19.890;2023-02-28T16:46:35;30.73;;;12.33;;
19691;SDS011;42748;50.016;19.890;2023-02-28T16:49:02;31.80;;;12.93;;
19691;SDS011;42748;50.016;19.890;2023-02-28T16:51:29;32.90;;;12.37;;
19691;SDS011;42748;50.016;19.890;2023-02-28T16:54:00;32.20;;;12.90;;
19691;SDS011;42748;50.016;19.890;2023-02-28T16:56:27;26.53;;;12.23;;
19691;SDS011;42748;50.016;19.890;2023-02-28T16:58:55;27.73;;;12.50;;
19691;SDS011;42748;50.016;19.890;2023-02-28T17:01:26;29.07;;;12.73;;
19691;SDS011;42748;50.016;19.890;2023-02-28T17:03:54;30.73;;;12.80;;
19691;SDS011;42748;50.016;19.890;2023-02-28T17:06:22;28.77;;;12.97;;
19691;SDS011;42748;50.016;19.890;2023-02-28T17:08:52;30.10;;;13.63;;
19691;SDS011;42748;50.016;19.890;2023-02-28T17:11:19;28.37;;;12.83;;